Namaste — WDH4581 — position and weather

sailwx.info

Track history (hours):
 
Tides and Currents Weather Stations Pressure Air Temp Water Temp Dewpoint Dewpoint Depression Visibility Wind Speed Wind Dir Waves Ship Positions

Namaste

Owner: Orchanian, John P, Port Ludlow, WA. More information available from US FCC via Universal Licensing System and Coast Guard Vessel Documentation Center.

Last reported at 2018-Jul-22 22:35 UTC. Time now 2018-Jul-23 00:26 UTC.
Position N 47°43' W 122°33'.

Type: Pleasure craft. MMSI: 367619230.

Date/timePositionNaut miles runAvg speedWind from/ knotsBaromVisibWave heightAir tempDewpointWater temp
2018-Jul-22 22:35N 47°43' W 122°33'0 4.8
2018-Jul-22 22:29N 47°44' W 122°33'3 4.9
2018-Jul-22 21:57N 47°44' W 122°29'4 4.4
2018-Jul-22 21:09N 47°48' W 122°28'1 4.3
2018-Jul-22 21:00N 47°49' W 122°28'2 4.1
2018-Jul-22 20:30N 47°51' W 122°28'2 4.2
2018-Jul-22 20:00N 47°53' W 122°28'2 4.4
2018-Jul-22 19:29N 47°55' W 122°30'5 0.2
2018-Jul-21 20:47N 47°55' W 122°37'37 1.4
2018-Jul-20 19:08N 48°31' W 122°46'1 3.2
2018-Jul-20 18:55N 48°31' W 122°47'2 3.9
2018-Jul-20 18:30N 48°32' W 122°49'2 4.4
2018-Jul-20 17:59N 48°34' W 122°51'3 4.3
2018-Jul-20 17:16N 48°37' W 122°52'1 0.0
2018-Jul-19 21:07N 48°38' W 122°52'0 3.7
2018-Jul-19 20:59N 48°38' W 122°52'1 2.3
2018-Jul-19 20:26N 48°36' W 122°51'2 4.1
2018-Jul-19 19:57N 48°35' W 122°53'2 4.7
2018-Jul-19 19:29N 48°35' W 122°50'1 2.7
2018-Jul-19 19:00N 48°35' W 122°52'1 2.4
2018-Jul-19 18:29N 48°34' W 122°51'1 0.1
2018-Jul-19 01:18N 48°32' W 122°51'0 0.9
2018-Jul-19 00:59N 48°33' W 122°51'1 1.9
2018-Jul-19 00:30N 48°34' W 122°52'2 4.1
2018-Jul-19 00:00N 48°34' W 122°55'3 5.0
2018-Jul-18 23:29N 48°33' W 122°58'  
2018-Jul-14 21:39N 48°34' W 122°60'0 2.7
2018-Jul-14 21:30N 48°33' W 122°59'2 3.1
2018-Jul-14 21:00N 48°33' W 122°57'2 4.1
2018-Jul-14 20:30N 48°31' W 122°57'1 2.2
2018-Jul-14 20:01N 48°29' W 122°57'  
Track history (hours):
 
Tides and Currents Weather Stations Pressure Air Temp Water Temp Dewpoint Dewpoint Depression Visibility Wind Speed Wind Dir Waves Ship Positions

Namaste

Owner: Orchanian, John P, Port Ludlow, WA. More information available from US FCC via Universal Licensing System and Coast Guard Vessel Documentation Center.

Last reported at 2018-Jul-22 22:35 UTC. Time now 2018-Jul-23 00:26 UTC.
Position N 47°43' W 122°33'.

Type: Pleasure craft. MMSI: 367619230.

Date/timePositionNaut miles runAvg speedWind from/ knotsBaromVisibWave heightAir tempDewpointWater temp
2018-Jul-22 22:35N 47°43' W 122°33'0 4.8
2018-Jul-22 22:29N 47°44' W 122°33'3 4.9
2018-Jul-22 21:57N 47°44' W 122°29'4 4.4
2018-Jul-22 21:09N 47°48' W 122°28'1 4.3
2018-Jul-22 21:00N 47°49' W 122°28'2 4.1
2018-Jul-22 20:30N 47°51' W 122°28'2 4.2
2018-Jul-22 20:00N 47°53' W 122°28'2 4.4
2018-Jul-22 19:29N 47°55' W 122°30'5 0.2
2018-Jul-21 20:47N 47°55' W 122°37'37 1.4
2018-Jul-20 19:08N 48°31' W 122°46'1 3.2
2018-Jul-20 18:55N 48°31' W 122°47'2 3.9
2018-Jul-20 18:30N 48°32' W 122°49'2 4.4
2018-Jul-20 17:59N 48°34' W 122°51'3 4.3
2018-Jul-20 17:16N 48°37' W 122°52'1 0.0
2018-Jul-19 21:07N 48°38' W 122°52'0 3.7
2018-Jul-19 20:59N 48°38' W 122°52'1 2.3
2018-Jul-19 20:26N 48°36' W 122°51'2 4.1
2018-Jul-19 19:57N 48°35' W 122°53'2 4.7
2018-Jul-19 19:29N 48°35' W 122°50'1 2.7
2018-Jul-19 19:00N 48°35' W 122°52'1 2.4
2018-Jul-19 18:29N 48°34' W 122°51'1 0.1
2018-Jul-19 01:18N 48°32' W 122°51'0 0.9
2018-Jul-19 00:59N 48°33' W 122°51'1 1.9
2018-Jul-19 00:30N 48°34' W 122°52'2 4.1
2018-Jul-19 00:00N 48°34' W 122°55'3 5.0
2018-Jul-18 23:29N 48°33' W 122°58'  
2018-Jul-14 21:39N 48°34' W 122°60'0 2.7
2018-Jul-14 21:30N 48°33' W 122°59'2 3.1
2018-Jul-14 21:00N 48°33' W 122°57'2 4.1
2018-Jul-14 20:30N 48°31' W 122°57'1 2.2
2018-Jul-14 20:01N 48°29' W 122°57'  

Dump ship's entire track history